Clare Christine — V2DT7 — position and weather

sailwx.info

Track history (hours):
 
Tides and Currents Weather Stations Pressure Air Temp Water Temp Dewpoint Dewpoint Depression Visibility Wind Speed Wind Dir Waves Ship Positions

Clare Christine

Last reported at 2015-Apr-19 16:33 UTC. Time now 2015-Apr-19 17:34 UTC.
Position N 46°09' W 001°13'.

Length 89 m; draft 3.5 m.

Type: Cargo ship. MMSI: 305379000.

Date/timePositionNaut miles runAvg speedWind from/ knotsBaromVisibWave heightAir tempDewpointWater temp
2015-Apr-19 16:33N 46°09' W 001°13'0 0.2
2015-Apr-19 15:33N 46°09' W 001°13'5 4.5
2015-Apr-19 14:33N 46°05' W 001°14'0 0.1
2015-Apr-19 13:31N 46°05' W 001°14'0 0.0
2015-Apr-19 12:31N 46°05' W 001°14'0 0.0
2015-Apr-19 11:31N 46°05' W 001°14'0 0.1
2015-Apr-19 10:31N 46°05' W 001°14'0 0.1
2015-Apr-19 09:31N 46°05' W 001°14'0 0.0
2015-Apr-19 08:31N 46°05' W 001°14'0 0.0
2015-Apr-19 07:31N 46°05' W 001°14'0 0.0
2015-Apr-19 06:31N 46°05' W 001°14'0 0.0
2015-Apr-19 05:31N 46°05' W 001°14'0 0.0
2015-Apr-19 04:31N 46°05' W 001°14'0 0.0
2015-Apr-19 03:31N 46°05' W 001°14'0 0.0
2015-Apr-19 02:31N 46°05' W 001°14'0 0.1
2015-Apr-19 01:28N 46°05' W 001°14'0 0.0
2015-Apr-19 00:31N 46°05' W 001°14'0 0.0
2015-Apr-18 23:31N 46°05' W 001°14'0 0.0
2015-Apr-18 22:31N 46°05' W 001°14'0 0.1
2015-Apr-18 21:31N 46°05' W 001°14'0 0.1
2015-Apr-18 20:31N 46°05' W 001°14'0 0.0
2015-Apr-18 19:28N 46°05' W 001°14'0 0.1
2015-Apr-18 18:31N 46°05' W 001°14'0 0.0
2015-Apr-18 17:31N 46°05' W 001°14'0 0.0
2015-Apr-18 16:31N 46°05' W 001°14'0 0.0
2015-Apr-18 15:31N 46°05' W 001°14'0 0.0
2015-Apr-18 14:31N 46°05' W 001°14'0 0.1
2015-Apr-18 13:31N 46°05' W 001°14'0 0.0
2015-Apr-18 12:31N 46°05' W 001°14'0 0.0
2015-Apr-18 11:31N 46°05' W 001°14'0 0.0
2015-Apr-18 10:31N 46°05' W 001°14'0 0.1
2015-Apr-18 09:31N 46°05' W 001°14'0 0.1
2015-Apr-18 08:31N 46°05' W 001°14'0 0.0
2015-Apr-18 07:31N 46°05' W 001°14'0 0.0
2015-Apr-18 06:31N 46°05' W 001°14'0 0.0
2015-Apr-18 05:31N 46°05' W 001°14'0 0.0
2015-Apr-18 04:31N 46°05' W 001°14'0 0.1
2015-Apr-18 03:31N 46°05' W 001°14'0 0.0
2015-Apr-18 02:31N 46°05' W 001°14'0 0.0
2015-Apr-18 01:31N 46°05' W 001°14'0 0.0
2015-Apr-18 00:31N 46°05' W 001°14'0 0.0
2015-Apr-17 23:31N 46°05' W 001°14'0 0.0
2015-Apr-17 22:31N 46°05' W 001°14'0 0.0
2015-Apr-17 21:31N 46°05' W 001°14'0 0.0
2015-Apr-17 20:31N 46°05' W 001°14'0 0.1
2015-Apr-17 19:31N 46°05' W 001°14'0 0.1
2015-Apr-17 18:33N 46°05' W 001°14'9 9.2
2015-Apr-17 17:33N 46°06' W 001°27'1110.7
2015-Apr-17 16:33N 46°08' W 001°42'  
2015-Apr-12 06:22N 49°54' W 003°07'76 8.5
2015-Apr-11 21:27N 50°19' W 001°15'4410.7
2015-Apr-11 17:18N 50°31' W 000°08'7 9.5
2015-Apr-11 16:34N 50°33' E 000°03'9 8.9
2015-Apr-11 15:33N 50°35' E 000°16'8 8.3
2015-Apr-11 14:33N 50°38' E 000°28'7 7.5
2015-Apr-11 13:34N 50°41' E 000°39'8 7.5
2015-Apr-11 12:34N 50°45' E 000°49'8 8.1
2015-Apr-11 11:33N 50°50' E 000°60'10 8.9
2015-Apr-11 10:29N 50°56' E 001°11'9 9.7
2015-Apr-11 09:34N 51°02' E 001°22'9 9.4
2015-Apr-11 08:34N 51°08' E 001°34'8 8.4
2015-Apr-11 07:34N 51°13' E 001°44'8 8.0
2015-Apr-11 06:34N 51°20' E 001°52'8 7.8
2015-Apr-11 05:34N 51°26' E 001°59'8 7.7
2015-Apr-11 04:33N 51°32' E 002°07'8 8.4
2015-Apr-11 03:33N 51°38' E 002°15'10 9.3
2015-Apr-11 02:30N 51°46' E 002°25'4410.8
2015-Apr-10 22:22N 52°21' E 003°10'26 9.4
2015-Apr-10 19:34N 52°41' E 003°37'9 8.7
2015-Apr-10 18:33N 52°48' E 003°47'9 8.8
2015-Apr-10 17:33N 52°55' E 003°56'10 9.7
2015-Apr-10 16:34N 53°01' E 004°08'1110.5
2015-Apr-10 15:33N 53°08' E 004°22'1210.5
2015-Apr-10 14:28N 53°18' E 004°31'910.5
2015-Apr-10 13:33N 53°27' E 004°37'10 9.6
2015-Apr-10 12:33N 53°31' E 004°51'9 8.9
2015-Apr-10 11:34N 53°34' E 005°05'9 8.5
2015-Apr-10 10:34N 53°37' E 005°19'9 8.6
2015-Apr-10 09:34N 53°40' E 005°32'9 8.8
2015-Apr-10 08:34N 53°42' E 005°47'10 9.7
2015-Apr-10 07:34N 53°45' E 006°02'1110.8
2015-Apr-10 06:32N 53°49' E 006°20'1111.1
2015-Apr-10 05:31N 53°52' E 006°39'1813.4
2015-Apr-10 04:10N 53°56' E 007°08'3 4.3
2015-Apr-10 03:33N 53°57' E 007°12'10 9.9
2015-Apr-10 02:33N 53°60' E 007°29'9 9.0
2015-Apr-10 01:34N 54°02' E 007°44'9 8.8
2015-Apr-10 00:33N 54°02' E 007°59'9 8.8
2015-Apr-09 23:33N 54°01' E 008°14'9 9.4
2015-Apr-09 22:34N 53°59' E 008°29'1111.4
2015-Apr-09 21:34N 53°52' E 008°44'1312.9
2015-Apr-09 20:34N 53°53' E 009°06'2 2.5
2015-Apr-09 19:33N 53°54' E 009°10'1 1.3
2015-Apr-09 18:33N 53°55' E 009°11'8 8.1
2015-Apr-09 17:33N 54°02' E 009°18'  
Track history (hours):
 
Tides and Currents Weather Stations Pressure Air Temp Water Temp Dewpoint Dewpoint Depression Visibility Wind Speed Wind Dir Waves Ship Positions

Clare Christine

Last reported at 2015-Apr-19 16:33 UTC. Time now 2015-Apr-19 17:34 UTC.
Position N 46°09' W 001°13'.

Length 89 m; draft 3.5 m.

Type: Cargo ship. MMSI: 305379000.

Date/timePositionNaut miles runAvg speedWind from/ knotsBaromVisibWave heightAir tempDewpointWater temp
2015-Apr-19 16:33N 46°09' W 001°13'0 0.2
2015-Apr-19 15:33N 46°09' W 001°13'5 4.5
2015-Apr-19 14:33N 46°05' W 001°14'0 0.1
2015-Apr-19 13:31N 46°05' W 001°14'0 0.0
2015-Apr-19 12:31N 46°05' W 001°14'0 0.0
2015-Apr-19 11:31N 46°05' W 001°14'0 0.1
2015-Apr-19 10:31N 46°05' W 001°14'0 0.1
2015-Apr-19 09:31N 46°05' W 001°14'0 0.0
2015-Apr-19 08:31N 46°05' W 001°14'0 0.0
2015-Apr-19 07:31N 46°05' W 001°14'0 0.0
2015-Apr-19 06:31N 46°05' W 001°14'0 0.0
2015-Apr-19 05:31N 46°05' W 001°14'0 0.0
2015-Apr-19 04:31N 46°05' W 001°14'0 0.0
2015-Apr-19 03:31N 46°05' W 001°14'0 0.0
2015-Apr-19 02:31N 46°05' W 001°14'0 0.1
2015-Apr-19 01:28N 46°05' W 001°14'0 0.0
2015-Apr-19 00:31N 46°05' W 001°14'0 0.0
2015-Apr-18 23:31N 46°05' W 001°14'0 0.0
2015-Apr-18 22:31N 46°05' W 001°14'0 0.1
2015-Apr-18 21:31N 46°05' W 001°14'0 0.1
2015-Apr-18 20:31N 46°05' W 001°14'0 0.0
2015-Apr-18 19:28N 46°05' W 001°14'0 0.1
2015-Apr-18 18:31N 46°05' W 001°14'0 0.0
2015-Apr-18 17:31N 46°05' W 001°14'0 0.0
2015-Apr-18 16:31N 46°05' W 001°14'0 0.0
2015-Apr-18 15:31N 46°05' W 001°14'0 0.0
2015-Apr-18 14:31N 46°05' W 001°14'0 0.1
2015-Apr-18 13:31N 46°05' W 001°14'0 0.0
2015-Apr-18 12:31N 46°05' W 001°14'0 0.0
2015-Apr-18 11:31N 46°05' W 001°14'0 0.0
2015-Apr-18 10:31N 46°05' W 001°14'0 0.1
2015-Apr-18 09:31N 46°05' W 001°14'0 0.1
2015-Apr-18 08:31N 46°05' W 001°14'0 0.0
2015-Apr-18 07:31N 46°05' W 001°14'0 0.0
2015-Apr-18 06:31N 46°05' W 001°14'0 0.0
2015-Apr-18 05:31N 46°05' W 001°14'0 0.0
2015-Apr-18 04:31N 46°05' W 001°14'0 0.1
2015-Apr-18 03:31N 46°05' W 001°14'0 0.0
2015-Apr-18 02:31N 46°05' W 001°14'0 0.0
2015-Apr-18 01:31N 46°05' W 001°14'0 0.0
2015-Apr-18 00:31N 46°05' W 001°14'0 0.0
2015-Apr-17 23:31N 46°05' W 001°14'0 0.0
2015-Apr-17 22:31N 46°05' W 001°14'0 0.0
2015-Apr-17 21:31N 46°05' W 001°14'0 0.0
2015-Apr-17 20:31N 46°05' W 001°14'0 0.1
2015-Apr-17 19:31N 46°05' W 001°14'0 0.1
2015-Apr-17 18:33N 46°05' W 001°14'9 9.2
2015-Apr-17 17:33N 46°06' W 001°27'1110.7
2015-Apr-17 16:33N 46°08' W 001°42'  
2015-Apr-12 06:22N 49°54' W 003°07'76 8.5
2015-Apr-11 21:27N 50°19' W 001°15'4410.7
2015-Apr-11 17:18N 50°31' W 000°08'7 9.5
2015-Apr-11 16:34N 50°33' E 000°03'9 8.9
2015-Apr-11 15:33N 50°35' E 000°16'8 8.3
2015-Apr-11 14:33N 50°38' E 000°28'7 7.5
2015-Apr-11 13:34N 50°41' E 000°39'8 7.5
2015-Apr-11 12:34N 50°45' E 000°49'8 8.1
2015-Apr-11 11:33N 50°50' E 000°60'10 8.9
2015-Apr-11 10:29N 50°56' E 001°11'9 9.7
2015-Apr-11 09:34N 51°02' E 001°22'9 9.4
2015-Apr-11 08:34N 51°08' E 001°34'8 8.4
2015-Apr-11 07:34N 51°13' E 001°44'8 8.0
2015-Apr-11 06:34N 51°20' E 001°52'8 7.8
2015-Apr-11 05:34N 51°26' E 001°59'8 7.7
2015-Apr-11 04:33N 51°32' E 002°07'8 8.4
2015-Apr-11 03:33N 51°38' E 002°15'10 9.3
2015-Apr-11 02:30N 51°46' E 002°25'4410.8
2015-Apr-10 22:22N 52°21' E 003°10'26 9.4
2015-Apr-10 19:34N 52°41' E 003°37'9 8.7
2015-Apr-10 18:33N 52°48' E 003°47'9 8.8
2015-Apr-10 17:33N 52°55' E 003°56'10 9.7
2015-Apr-10 16:34N 53°01' E 004°08'1110.5
2015-Apr-10 15:33N 53°08' E 004°22'1210.5
2015-Apr-10 14:28N 53°18' E 004°31'910.5
2015-Apr-10 13:33N 53°27' E 004°37'10 9.6
2015-Apr-10 12:33N 53°31' E 004°51'9 8.9
2015-Apr-10 11:34N 53°34' E 005°05'9 8.5
2015-Apr-10 10:34N 53°37' E 005°19'9 8.6
2015-Apr-10 09:34N 53°40' E 005°32'9 8.8
2015-Apr-10 08:34N 53°42' E 005°47'10 9.7
2015-Apr-10 07:34N 53°45' E 006°02'1110.8
2015-Apr-10 06:32N 53°49' E 006°20'1111.1
2015-Apr-10 05:31N 53°52' E 006°39'1813.4
2015-Apr-10 04:10N 53°56' E 007°08'3 4.3
2015-Apr-10 03:33N 53°57' E 007°12'10 9.9
2015-Apr-10 02:33N 53°60' E 007°29'9 9.0
2015-Apr-10 01:34N 54°02' E 007°44'9 8.8
2015-Apr-10 00:33N 54°02' E 007°59'9 8.8
2015-Apr-09 23:33N 54°01' E 008°14'9 9.4
2015-Apr-09 22:34N 53°59' E 008°29'1111.4
2015-Apr-09 21:34N 53°52' E 008°44'1312.9
2015-Apr-09 20:34N 53°53' E 009°06'2 2.5
2015-Apr-09 19:33N 53°54' E 009°10'1 1.3
2015-Apr-09 18:33N 53°55' E 009°11'8 8.1
2015-Apr-09 17:33N 54°02' E 009°18'  

Dump ship's entire track history